createdAt,value
2022-09-05T00:02:22.297Z,3.53
2022-09-05T00:05:04.983Z,3.35
2022-09-05T00:07:58.378Z,3.78
2022-09-05T00:10:46.407Z,5.20
2022-09-05T00:13:41.547Z,3.05
2022-09-05T00:16:55.647Z,4.05
2022-09-05T00:23:47.088Z,3.85
2022-09-05T00:24:37.158Z,3.88
2022-09-05T00:26:08.836Z,3.90
2022-09-05T00:28:54.791Z,3.05
2022-09-05T00:31:54.851Z,4.50
2022-09-05T00:35:08.918Z,6.32
2022-09-05T00:37:44.991Z,3.15
2022-09-05T00:40:28.247Z,3.42
2022-09-05T00:43:05.660Z,3.30
2022-09-05T00:45:44.162Z,3.25
2022-09-05T00:48:23.783Z,3.30
2022-09-05T00:51:11.993Z,2.72
2022-09-05T00:53:56.842Z,4.40
2022-09-05T00:56:47.941Z,3.58
2022-09-05T01:00:05.595Z,3.28
2022-09-05T01:02:52.428Z,3.38
2022-09-05T01:05:41.264Z,3.40
2022-09-05T01:08:47.034Z,3.20
2022-09-05T01:11:37.242Z,3.05
2022-09-05T01:14:26.082Z,3.20
2022-09-05T01:17:25.205Z,3.55
2022-09-05T01:20:19.221Z,3.05
2022-09-05T01:23:12.881Z,4.20
2022-09-05T01:26:02.982Z,5.40
2022-09-05T01:29:15.427Z,3.67
2022-09-05T01:31:43.750Z,3.22
2022-09-05T01:34:31.593Z,3.85
2022-09-05T01:37:32.638Z,3.80
2022-09-05T01:40:21.302Z,3.65
2022-09-05T01:43:15.964Z,3.92
2022-09-05T01:45:52.669Z,4.75
2022-09-05T01:48:35.007Z,3.53
2022-09-05T01:51:29.448Z,4.05
2022-09-05T01:54:27.176Z,5.22
2022-09-05T01:57:09.240Z,3.97
2022-09-05T01:59:49.494Z,3.45
2022-09-05T02:02:48.858Z,3.95
2022-09-05T02:05:54.855Z,3.72
2022-09-05T02:08:56.001Z,3.15
2022-09-05T02:11:46.487Z,3.13
2022-09-05T02:14:34.310Z,3.60
2022-09-05T02:17:27.337Z,3.17
2022-09-05T02:20:23.781Z,4.07
2022-09-05T02:23:04.370Z,3.30
2022-09-05T02:26:05.813Z,5.07
2022-09-05T02:28:48.809Z,3.60
2022-09-05T02:31:27.376Z,3.72
2022-09-05T02:34:09.393Z,3.20
2022-09-05T02:36:47.982Z,3.78
2022-09-05T02:45:08.929Z,3.15
2022-09-05T02:45:09.054Z,2.95
2022-09-05T02:45:30.190Z,3.15
2022-09-05T02:48:15.759Z,2.88
2022-09-05T02:57:24.514Z,3.60
2022-09-05T02:57:34.202Z,2.75
2022-09-05T02:57:40.247Z,3.80
2022-09-05T03:00:09.421Z,2.50
2022-09-05T03:03:01.628Z,3.95
2022-09-05T03:05:39.198Z,2.85
2022-09-05T03:08:18.260Z,3.88
2022-09-05T03:11:24.196Z,2.50
2022-09-05T03:14:39.181Z,3.83
2022-09-05T03:17:40.520Z,2.97
2022-09-05T03:20:47.688Z,3.40
2022-09-05T03:23:48.901Z,4.63
2022-09-05T03:27:12.219Z,2.45
2022-09-05T03:30:06.261Z,3.63
2022-09-05T03:33:17.896Z,2.75
2022-09-05T03:36:23.007Z,3.05
2022-09-05T03:39:35.193Z,4.90
2022-09-05T03:42:30.434Z,2.38
2022-09-05T03:45:31.248Z,2.85
2022-09-05T03:49:02.817Z,2.60
2022-09-05T03:55:59.962Z,5.03
2022-09-05T03:57:22.449Z,2.28
2022-09-05T03:58:56.363Z,3.55
2022-09-05T04:03:09.176Z,2.95
2022-09-05T04:08:17.178Z,4.38
2022-09-05T04:08:26.020Z,3.35
2022-09-05T04:10:32.340Z,3.95
2022-09-05T04:13:09.422Z,5.32
2022-09-05T04:15:46.516Z,3.33
2022-09-05T04:18:33.800Z,3.28
2022-09-05T04:21:14.398Z,3.08
2022-09-05T04:24:03.841Z,2.65
2022-09-05T04:27:00.197Z,4.60
2022-09-05T04:29:46.272Z,3.92
2022-09-05T04:32:31.213Z,3.00
2022-09-05T04:35:21.040Z,5.75
2022-09-05T04:37:59.349Z,3.58
2022-09-05T04:40:37.610Z,2.83
2022-09-05T04:43:16.025Z,2.72
2022-09-05T04:45:54.833Z,4.63
2022-09-05T04:48:34.455Z,8.40
2022-09-05T04:51:13.130Z,4.93
2022-09-05T04:54:08.963Z,5.88
2022-09-05T04:56:47.579Z,4.15
2022-09-05T05:01:24.298Z,2.67
2022-09-05T05:06:10.666Z,3.45
2022-09-05T05:06:16.670Z,4.15
2022-09-05T05:08:35.082Z,4.00
2022-09-05T05:15:25.995Z,3.78
2022-09-05T05:18:03.479Z,3.83
2022-09-05T05:18:11.319Z,5.15
2022-09-05T05:20:42.128Z,4.32
2022-09-05T05:23:08.288Z,4.25
2022-09-05T05:25:50.667Z,3.85
2022-09-05T05:28:29.779Z,5.17
2022-09-05T05:31:13.941Z,4.70
2022-09-05T05:33:49.941Z,5.57
2022-09-05T05:36:27.051Z,3.85
2022-09-05T05:39:05.271Z,5.45
2022-09-05T05:41:43.690Z,5.80
2022-09-05T05:44:19.116Z,4.30
2022-09-05T05:47:00.172Z,5.82
2022-09-05T05:49:46.177Z,5.45
2022-09-05T05:52:39.007Z,4.15
2022-09-05T05:55:53.170Z,3.53
2022-09-05T05:58:45.061Z,4.28
2022-09-05T06:01:44.991Z,3.58
2022-09-05T06:05:04.169Z,3.88
2022-09-05T06:10:14.397Z,3.85
2022-09-05T06:14:48.991Z,3.58
2022-09-05T06:15:06.186Z,4.25
2022-09-05T06:17:49.898Z,4.35
2022-09-05T06:22:06.749Z,4.05
2022-09-05T06:24:34.628Z,7.30
2022-09-05T06:27:31.279Z,7.75
2022-09-05T06:30:09.143Z,6.13
2022-09-05T06:33:03.986Z,3.92
2022-09-05T06:35:52.776Z,3.47
2022-09-05T06:39:02.628Z,5.88
2022-09-05T06:41:45.602Z,4.60
2022-09-05T06:44:46.934Z,3.47
2022-09-05T06:47:33.939Z,5.53
2022-09-05T06:50:23.896Z,3.90
2022-09-05T06:53:27.962Z,3.47
2022-09-05T06:56:25.904Z,3.72
2022-09-05T06:59:34.174Z,6.07
2022-09-05T07:02:23.935Z,5.20
2022-09-05T07:05:38.880Z,4.82
2022-09-05T07:08:36.856Z,3.83
2022-09-05T07:11:18.228Z,4.57
2022-09-05T07:13:57.626Z,5.28
2022-09-05T07:16:40.415Z,3.75
2022-09-05T07:19:27.068Z,3.20
2022-09-05T07:22:45.893Z,3.40
2022-09-05T07:25:10.320Z,3.47
2022-09-05T07:28:26.782Z,4.05
2022-09-05T07:30:48.819Z,5.35
2022-09-05T07:33:24.433Z,6.47
2022-09-05T07:36:06.450Z,6.68
2022-09-05T07:38:52.003Z,4.45
2022-09-05T07:41:34.039Z,4.57
2022-09-05T07:44:16.266Z,4.10
2022-09-05T07:46:52.439Z,5.45
2022-09-05T07:49:31.192Z,4.60
2022-09-05T07:56:51.146Z,4.75
2022-09-05T07:57:10.642Z,4.65
2022-09-05T07:58:12.881Z,4.05
2022-09-05T08:00:52.884Z,4.25
2022-09-05T08:03:29.158Z,2.70
2022-09-05T08:06:07.055Z,4.05
2022-09-05T08:09:21.259Z,4.75
2022-09-05T08:11:48.436Z,4.20
2022-09-05T08:14:48.670Z,5.85
2022-09-05T08:17:26.438Z,4.72
2022-09-05T08:20:15.511Z,5.43
2022-09-05T08:22:57.361Z,5.13
2022-09-05T08:25:36.392Z,3.33
2022-09-05T08:28:39.228Z,3.10
2022-09-05T08:31:15.739Z,4.18
2022-09-05T08:33:52.429Z,3.05
2022-09-05T08:36:34.220Z,3.78
2022-09-05T08:39:12.379Z,3.25
2022-09-05T08:42:05.598Z,4.95
2022-09-05T08:46:40.132Z,3.08
2022-09-05T08:47:49.820Z,2.88
2022-09-05T08:50:44.965Z,3.63
2022-09-05T08:53:45.623Z,4.38
2022-09-05T08:56:23.987Z,4.63
2022-09-05T08:59:28.019Z,5.88
2022-09-05T09:02:45.020Z,2.50
2022-09-05T09:05:14.318Z,2.83
2022-09-05T09:07:57.373Z,4.75
2022-09-05T09:10:45.106Z,3.05
2022-09-05T09:13:30.912Z,3.28
2022-09-05T09:16:10.919Z,3.13
2022-09-05T09:19:07.048Z,3.88
2022-09-05T09:21:48.023Z,3.28
2022-09-05T09:24:31.828Z,3.88
2022-09-05T09:27:07.651Z,3.67
2022-09-05T09:29:43.367Z,3.75
2022-09-05T09:32:21.476Z,3.15
2022-09-05T09:34:58.043Z,2.63
2022-09-05T09:38:01.371Z,5.10
2022-09-05T09:41:13.206Z,5.78
2022-09-05T09:44:45.549Z,6.15
2022-09-05T09:47:31.026Z,3.75
2022-09-05T09:50:23.413Z,2.00
2022-09-05T09:53:20.988Z,3.70
2022-09-05T09:56:14.704Z,5.05
2022-09-05T09:59:04.422Z,2.83
2022-09-05T10:01:44.381Z,4.32
2022-09-05T10:10:34.053Z,3.45
2022-09-05T10:10:54.224Z,4.82
2022-09-05T10:14:49.741Z,7.35
2022-09-05T10:17:41.366Z,2.83
2022-09-05T10:20:41.079Z,5.82
2022-09-05T10:23:56.263Z,5.13
2022-09-05T10:26:57.631Z,3.08
2022-09-05T10:29:46.504Z,4.15
2022-09-05T10:35:08.404Z,4.22
2022-09-05T10:35:24.116Z,4.15
2022-09-05T10:38:04.327Z,6.15
2022-09-05T10:41:21.083Z,3.17
2022-09-05T10:43:50.779Z,3.88
2022-09-05T10:46:50.374Z,3.50
2022-09-05T10:49:30.065Z,3.13
2022-09-05T10:52:18.751Z,2.47
2022-09-05T10:55:22.004Z,2.88
2022-09-05T10:58:06.414Z,4.15
2022-09-05T11:02:22.383Z,2.67
2022-09-05T11:04:04.328Z,2.50
2022-09-05T11:06:53.213Z,6.72
2022-09-05T11:09:40.257Z,2.75
2022-09-05T11:12:28.369Z,2.33
2022-09-05T11:15:03.751Z,1.67
2022-09-05T11:17:43.132Z,3.10
2022-09-05T11:20:35.998Z,4.03
2022-09-05T11:23:15.138Z,4.43
2022-09-05T11:25:56.301Z,2.10
2022-09-05T11:28:38.958Z,1.70
2022-09-05T11:32:04.226Z,3.22
2022-09-05T11:39:53.634Z,2.38
2022-09-05T11:40:02.701Z,2.08
2022-09-05T11:41:53.140Z,3.55
2022-09-05T11:44:35.657Z,3.15
2022-09-05T11:47:44.843Z,2.80
2022-09-05T11:50:43.342Z,3.80
2022-09-05T11:53:57.373Z,3.17
2022-09-05T11:56:49.591Z,3.00
2022-09-05T12:00:28.162Z,2.72
2022-09-05T12:03:57.237Z,1.90
2022-09-05T12:06:30.777Z,3.80
2022-09-05T12:09:17.258Z,2.33
2022-09-05T12:12:18.724Z,2.42
2022-09-05T12:15:25.400Z,2.72
2022-09-05T12:18:19.299Z,3.83
2022-09-05T12:21:03.841Z,4.70
2022-09-05T12:25:15.988Z,5.05
2022-09-05T12:27:40.164Z,2.03
2022-09-05T12:29:59.972Z,2.72
2022-09-05T12:34:34.246Z,2.60
2022-09-05T12:36:03.952Z,2.00
2022-09-05T12:41:02.280Z,3.03
2022-09-05T12:42:13.739Z,2.42
2022-09-05T12:44:52.163Z,3.85
2022-09-05T12:47:30.047Z,2.25
2022-09-05T12:50:15.012Z,2.33
2022-09-05T12:52:51.755Z,1.90
2022-09-05T12:55:31.294Z,3.13
2022-09-05T13:03:05.982Z,1.75
2022-09-05T13:03:11.873Z,2.40
2022-09-05T13:04:26.823Z,2.13
2022-09-05T13:07:08.720Z,4.07
2022-09-05T13:10:58.789Z,2.88
2022-09-05T13:14:54.123Z,2.55
2022-09-05T13:15:42.221Z,3.13
2022-09-05T13:18:17.323Z,2.47
2022-09-05T13:21:06.479Z,3.13
2022-09-05T13:23:42.544Z,2.78
2022-09-05T13:26:20.767Z,2.38
2022-09-05T13:29:11.040Z,3.83
2022-09-05T13:38:02.136Z,5.80
2022-09-05T13:38:15.039Z,10.10
2022-09-05T13:38:37.643Z,6.10
2022-09-05T13:41:27.287Z,3.42
2022-09-05T13:44:25.323Z,5.35
2022-09-05T13:47:00.676Z,4.38
2022-09-05T13:49:38.270Z,5.22
2022-09-05T13:52:27.973Z,4.55
2022-09-05T13:55:18.751Z,4.00
2022-09-05T13:57:57.116Z,2.50
2022-09-05T14:01:05.515Z,3.28
2022-09-05T14:03:57.126Z,2.45
2022-09-05T14:10:33.433Z,4.40
2022-09-05T14:13:10.581Z,3.83
2022-09-05T14:15:53.306Z,2.40
2022-09-05T14:18:29.982Z,4.32
2022-09-05T14:21:18.853Z,3.55
2022-09-05T14:23:56.603Z,3.33
2022-09-05T14:26:35.283Z,3.17
2022-09-05T14:29:18.847Z,2.35
2022-09-05T14:37:34.449Z,2.03
2022-09-05T14:37:52.009Z,2.78
2022-09-05T14:38:42.508Z,2.15
2022-09-05T14:42:09.606Z,4.30
2022-09-05T14:45:18.613Z,3.72
2022-09-05T14:48:18.905Z,3.53
2022-09-05T14:51:06.350Z,3.08
2022-09-05T14:57:23.090Z,2.15
2022-09-05T15:02:47.948Z,2.35
2022-09-05T15:02:51.541Z,4.30
2022-09-05T15:05:40.915Z,3.75
2022-09-05T15:11:20.319Z,3.63
2022-09-05T15:12:15.836Z,3.05
2022-09-05T15:14:13.340Z,2.65
2022-09-05T15:16:58.955Z,3.13
2022-09-05T15:20:06.648Z,4.35
2022-09-05T15:22:43.257Z,2.80
2022-09-05T15:25:20.301Z,3.58
2022-09-05T15:27:54.790Z,2.63
2022-09-05T15:30:34.862Z,3.05
2022-09-05T15:33:16.741Z,2.85
2022-09-05T15:35:49.850Z,2.20
2022-09-05T15:38:27.300Z,3.55
2022-09-05T15:41:11.488Z,4.75
2022-09-05T15:43:58.282Z,2.05
2022-09-05T15:46:46.445Z,3.80
2022-09-05T15:49:29.113Z,8.38
2022-09-05T15:54:40.010Z,3.80
2022-09-05T15:57:21.770Z,4.40
2022-09-05T15:59:57.392Z,4.45
2022-09-05T16:02:34.620Z,2.83
2022-09-05T16:10:27.396Z,3.47
2022-09-05T16:10:58.344Z,3.03
2022-09-05T16:12:00.432Z,3.03
2022-09-05T16:14:26.574Z,4.05
2022-09-05T16:23:15.378Z,7.07
2022-09-05T16:23:28.095Z,4.68
2022-09-05T16:23:30.080Z,6.30
2022-09-05T16:26:11.590Z,4.13
2022-09-05T16:28:48.411Z,2.80
2022-09-05T16:31:26.878Z,4.50
2022-09-05T16:34:02.806Z,3.92
2022-09-05T16:36:54.751Z,4.65
2022-09-05T16:39:48.269Z,3.35
2022-09-05T16:42:45.855Z,5.20
2022-09-05T16:45:31.254Z,3.80
2022-09-05T16:48:16.165Z,2.50
2022-09-05T16:50:53.918Z,4.30
2022-09-05T16:53:38.326Z,5.93
2022-09-05T16:56:24.157Z,5.07
2022-09-05T16:59:00.027Z,4.75
2022-09-05T17:01:54.697Z,7.30
2022-09-05T17:05:04.792Z,4.35
2022-09-05T17:07:53.499Z,3.28
2022-09-05T17:10:28.919Z,5.20
2022-09-05T17:13:05.644Z,5.35
2022-09-05T17:15:51.652Z,5.32
2022-09-05T17:18:31.315Z,3.25
2022-09-05T17:21:09.246Z,4.50
2022-09-05T17:29:18.547Z,3.45
2022-09-05T17:29:25.033Z,5.18
2022-09-05T17:32:47.696Z,3.78
2022-09-05T17:35:42.953Z,5.70
2022-09-05T17:38:34.326Z,4.95
2022-09-05T17:41:49.423Z,5.28
2022-09-05T17:44:28.080Z,4.57
2022-09-05T17:47:15.431Z,5.22
2022-09-05T17:49:53.174Z,4.80
2022-09-05T17:52:25.901Z,3.15
2022-09-05T17:57:41.392Z,6.13
2022-09-05T18:00:59.316Z,4.40
2022-09-05T18:04:08.339Z,7.55
2022-09-05T18:06:59.473Z,7.38
2022-09-05T18:10:11.947Z,9.70
2022-09-05T18:13:31.655Z,5.43
2022-09-05T18:16:12.270Z,4.00
2022-09-05T18:21:49.720Z,5.90
2022-09-05T18:28:03.763Z,9.48
2022-09-05T18:33:56.021Z,6.00
2022-09-05T18:36:34.537Z,5.05
2022-09-05T18:39:42.845Z,6.13
2022-09-05T18:42:33.434Z,5.55
2022-09-05T18:45:14.453Z,5.25
2022-09-05T18:47:58.983Z,6.35
2022-09-05T18:50:41.070Z,5.18
2022-09-05T18:53:19.022Z,6.05
2022-09-05T18:56:20.410Z,7.00
2022-09-05T18:59:09.612Z,7.90
2022-09-05T19:01:57.847Z,7.45
2022-09-05T19:04:39.882Z,4.93
2022-09-05T19:07:22.352Z,11.50
2022-09-05T19:10:33.878Z,9.77
2022-09-05T19:13:09.845Z,7.72
2022-09-05T19:15:49.772Z,6.80
2022-09-05T19:18:26.881Z,8.50
2022-09-05T19:21:11.916Z,10.55
2022-09-05T19:23:51.351Z,8.23
2022-09-05T19:26:25.113Z,9.07
2022-09-05T19:36:46.600Z,10.00
2022-09-05T19:36:55.107Z,8.40
2022-09-05T19:37:10.685Z,8.57
2022-09-05T19:37:49.789Z,7.65
2022-09-05T19:45:32.765Z,7.32
2022-09-05T19:47:41.035Z,9.38
2022-09-05T19:47:57.660Z,7.38
2022-09-05T19:49:11.977Z,8.57
2022-09-05T19:51:44.972Z,7.82
2022-09-05T19:54:27.343Z,6.20
2022-09-05T19:57:02.385Z,6.07
2022-09-05T19:59:38.494Z,6.35
2022-09-05T20:02:20.333Z,6.32
2022-09-05T20:04:55.683Z,5.15
2022-09-05T20:07:30.160Z,3.78
2022-09-05T20:10:04.787Z,5.57
2022-09-05T20:12:39.079Z,5.25
2022-09-05T20:15:22.831Z,4.28
2022-09-05T20:17:58.607Z,4.18
2022-09-05T20:20:38.685Z,4.25
2022-09-05T20:23:16.959Z,7.03
2022-09-05T20:25:50.163Z,5.70
2022-09-05T20:28:25.535Z,3.95
2022-09-05T20:31:01.838Z,4.82
2022-09-05T20:33:42.022Z,2.83
2022-09-05T20:43:22.632Z,4.07
2022-09-05T20:43:23.467Z,4.85
2022-09-05T20:43:32.707Z,5.13
2022-09-05T20:45:03.442Z,7.07
2022-09-05T20:54:07.174Z,4.88
2022-09-05T20:54:20.334Z,4.82
2022-09-05T20:54:25.371Z,4.80
2022-09-05T20:56:35.102Z,3.97
2022-09-05T21:01:55.859Z,4.38
2022-09-05T21:04:33.067Z,4.30
2022-09-05T21:07:12.791Z,5.35
2022-09-05T21:09:53.006Z,3.38
2022-09-05T21:12:28.378Z,2.55
2022-09-05T21:15:31.794Z,7.00
2022-09-05T21:18:03.708Z,3.38
2022-09-05T21:20:38.794Z,2.95
2022-09-05T21:23:22.782Z,3.80
2022-09-05T21:25:59.124Z,6.75
2022-09-05T21:28:36.977Z,5.15
2022-09-05T21:31:16.079Z,5.18
2022-09-05T21:33:57.417Z,4.80
2022-09-05T21:36:32.487Z,3.88
2022-09-05T21:41:39.769Z,4.15
2022-09-05T21:47:35.027Z,5.75
2022-09-05T21:47:41.109Z,3.75
2022-09-05T21:50:01.338Z,3.00
2022-09-05T21:59:28.368Z,1.80
2022-09-05T21:59:33.587Z,4.00
2022-09-05T22:01:19.628Z,3.15
2022-09-05T22:04:12.718Z,2.03
2022-09-05T22:06:48.554Z,2.20
2022-09-05T22:09:23.176Z,3.58
2022-09-05T22:11:57.255Z,4.32
2022-09-05T22:14:31.909Z,3.78
2022-09-05T22:17:05.085Z,2.33
2022-09-05T22:19:38.146Z,1.55
2022-09-05T22:24:53.127Z,2.47
2022-09-05T22:27:29.432Z,1.55
2022-09-05T22:30:04.565Z,2.05
2022-09-05T22:32:37.274Z,1.85
2022-09-05T22:35:27.945Z,3.08
2022-09-05T22:38:05.045Z,3.25
2022-09-05T22:40:41.889Z,2.45
2022-09-05T22:43:16.428Z,1.88
2022-09-05T22:45:50.072Z,2.70
2022-09-05T22:48:22.998Z,3.03
2022-09-05T22:53:28.243Z,1.40
2022-09-05T22:56:02.791Z,2.10
2022-09-05T22:58:40.322Z,1.98
2022-09-05T23:01:13.334Z,2.05
2022-09-05T23:03:46.176Z,2.45
2022-09-05T23:06:19.901Z,1.77
2022-09-05T23:08:52.974Z,1.48
2022-09-05T23:11:25.702Z,2.42
2022-09-05T23:13:59.687Z,2.67
2022-09-05T23:16:32.432Z,2.05
2022-09-05T23:19:05.209Z,1.42
2022-09-05T23:21:38.007Z,2.20
2022-09-05T23:24:10.695Z,1.25
2022-09-05T23:26:43.476Z,1.55
2022-09-05T23:31:51.039Z,1.55
2022-09-05T23:34:25.507Z,2.40
2022-09-05T23:36:58.732Z,1.60
2022-09-05T23:39:31.663Z,1.83
2022-09-05T23:44:38.655Z,2.30
2022-09-05T23:47:11.566Z,1.17
2022-09-05T23:52:17.306Z,2.47
2022-09-05T23:54:50.091Z,1.15
2022-09-05T23:57:23.387Z,1.73
2022-09-05T23:59:57.458Z,1.15
